createdAt,value
2022-09-04T00:00:07.665Z,19.3
2022-09-04T00:15:02.154Z,19.3
2022-09-04T00:30:05.303Z,19.2
2022-09-04T00:45:02.188Z,19.1
2022-09-04T01:00:07.308Z,19.1
2022-09-04T01:15:04.042Z,19.0
2022-09-04T01:30:05.775Z,19
2022-09-04T01:45:03.903Z,18.9
2022-09-04T02:00:06.332Z,18.9
2022-09-04T02:15:04.830Z,18.9
2022-09-04T02:30:03.747Z,18.8
2022-09-04T02:45:03.155Z,18.8
2022-09-04T03:00:05.757Z,18.8
2022-09-04T03:15:03.234Z,18.7
2022-09-04T03:30:05.458Z,18.7
2022-09-04T03:45:03.402Z,18.7
2022-09-04T04:00:04.063Z,18.7
2022-09-04T04:15:03.033Z,18.7
2022-09-04T04:30:05.806Z,18.6
2022-09-04T04:45:03.779Z,18.6
2022-09-04T05:00:04.754Z,18.6
2022-09-04T05:15:03.115Z,18.6
2022-09-04T05:30:04.434Z,18.6
2022-09-04T05:45:02.531Z,18.6
2022-09-04T06:00:06.217Z,18.6
2022-09-04T06:15:04.505Z,18.6
2022-09-04T06:30:07.623Z,18.6
2022-09-04T06:45:03.247Z,18.6
2022-09-04T07:00:07.166Z,18.7
2022-09-04T07:15:04.425Z,18.7
2022-09-04T07:30:09.134Z,18.8
2022-09-04T07:45:03.263Z,18.8
2022-09-04T08:00:07.315Z,18.9
2022-09-04T08:15:03.739Z,19.0
2022-09-04T08:30:04.774Z,19
2022-09-04T08:45:03.795Z,19
2022-09-04T09:00:07.878Z,19.1
2022-09-04T09:15:02.643Z,19.1
2022-09-04T09:30:06.579Z,19.2
2022-09-04T09:45:04.801Z,19.2
2022-09-04T10:00:05.471Z,19.3
2022-09-04T10:15:02.789Z,19.3
2022-09-04T10:30:05.742Z,19.4
2022-09-04T10:45:03.457Z,19.4
2022-09-04T11:00:09.272Z,19.5
2022-09-04T11:15:02.156Z,19.5
2022-09-04T11:30:07.274Z,19.6
2022-09-04T11:45:02.493Z,19.7
2022-09-04T12:00:07.748Z,19.8
2022-09-04T12:15:07.389Z,19.8
2022-09-04T12:30:07.408Z,19.9
2022-09-04T12:45:02.594Z,20.0
2022-09-04T13:00:08.026Z,20.1
2022-09-04T13:15:03.614Z,20.1
2022-09-04T13:30:06.168Z,20.2
2022-09-04T13:45:04.835Z,20.2
2022-09-04T14:00:05.768Z,20.3
2022-09-04T14:15:03.012Z,20.4
2022-09-04T14:30:07.799Z,20.5
2022-09-04T14:45:02.843Z,20.5
2022-09-04T15:00:06.090Z,20.6
2022-09-04T15:15:03.415Z,20.6
2022-09-04T15:30:08.957Z,20.7
2022-09-04T15:45:02.878Z,20.7
2022-09-04T16:00:07.269Z,20.8
2022-09-04T16:15:03.612Z,20.9
2022-09-04T16:30:09.122Z,20.9
2022-09-04T16:45:03.964Z,20.9
2022-09-04T17:00:06.819Z,21
2022-09-04T17:15:03.156Z,21
2022-09-04T17:30:13.864Z,21.1
2022-09-04T17:45:02.840Z,21.0
2022-09-04T18:00:08.749Z,20.9
2022-09-04T18:15:13.359Z,20.8
2022-09-04T18:30:45.614Z,20.7
2022-09-04T18:45:14.937Z,20.6
2022-09-04T19:00:09.278Z,20.6
2022-09-04T19:15:03.898Z,20.4
2022-09-04T19:30:19.008Z,20.4
2022-09-04T19:45:58.861Z,20.3
2022-09-04T20:00:25.248Z,20.2
2022-09-04T20:15:03.266Z,20.1
2022-09-04T20:30:05.280Z,20.0
2022-09-04T20:47:55.130Z,20
2022-09-04T21:02:37.858Z,19.9
2022-09-04T21:15:03.411Z,19.8
2022-09-04T21:30:07.045Z,19.8
2022-09-04T21:45:03.220Z,19.7
2022-09-04T22:02:33.718Z,19.7
2022-09-04T22:15:03.067Z,19.5
2022-09-04T22:30:07.044Z,19.5
2022-09-04T22:45:06.859Z,19.5
2022-09-04T23:00:05.997Z,19.5
2022-09-04T23:15:08.195Z,19.4
2022-09-04T23:30:04.930Z,19.4
2022-09-04T23:45:02.748Z,19.3
